Time;durP1;ratioP1;P1;durP2;ratioP2;P2;SDS_P1;SDS_P2;PMS_P1;PMS_P2;Temp;Humidity;BMP_temperature;BMP_pressure;BME280_temperature;BME280_humidity;BME280_pressure;Samples;Min_cycle;Max_cycle;Signal;HPM_P1;HPM_P2
2021/01/24 00:00:18;;;;;;;326.77;172.15;;;17.20;46.90;;;;;;5082822;28;20148;-61
2021/01/24 00:02:43;;;;;;;381.13;200.95;;;17.20;47.20;;;;;;5085002;28;20432;-58
2021/01/24 00:05:09;;;;;;;397.05;212.38;;;17.20;47.50;;;;;;5084909;28;20126;-59
2021/01/24 00:07:35;;;;;;;420.65;224.73;;;17.20;48.10;;;;;;5091699;28;20103;-60
2021/01/24 00:10:01;;;;;;;420.75;228.93;;;17.20;48.30;;;;;;5090788;28;20044;-60
2021/01/24 00:12:26;;;;;;;399.60;214.32;;;17.30;48.40;;;;;;5092828;28;20112;-58
2021/01/24 00:14:52;;;;;;;395.48;203.80;;;17.20;48.50;;;;;;5092665;28;20056;-58
2021/01/24 00:17:17;;;;;;;370.75;192.10;;;17.30;48.60;;;;;;5094305;28;20024;-58
2021/01/24 00:19:43;;;;;;;363.17;189.50;;;17.30;48.70;;;;;;5096959;28;20471;-59
2021/01/24 00:22:09;;;;;;;347.83;179.15;;;17.40;49.00;;;;;;5094919;28;20031;-59
2021/01/24 00:24:34;;;;;;;330.23;172.80;;;17.30;49.00;;;;;;5095323;28;20031;-60
2021/01/24 00:27:00;;;;;;;324.00;168.52;;;17.20;49.10;;;;;;5094424;28;20162;-60
2021/01/24 00:29:26;;;;;;;311.83;166.93;;;17.20;49.50;;;;;;5094313;28;20058;-59
2021/01/24 00:31:51;;;;;;;310.88;163.52;;;17.10;49.60;;;;;;5094374;28;20036;-59
2021/01/24 00:34:17;;;;;;;311.50;161.00;;;17.10;49.60;;;;;;5094219;28;20086;-59
2021/01/24 00:36:42;;;;;;;311.05;158.43;;;17.10;50.00;;;;;;5094053;28;20435;-59
2021/01/24 00:39:08;;;;;;;281.10;150.15;;;17.00;50.10;;;;;;5094690;28;20028;-59
2021/01/24 00:41:34;;;;;;;277.88;149.13;;;17.00;50.30;;;;;;5096711;28;20030;-59
2021/01/24 00:44:00;;;;;;;292.15;149.27;;;17.00;50.40;;;;;;5096686;28;20103;-59
2021/01/24 00:46:25;;;;;;;283.50;149.30;;;17.00;50.50;;;;;;5096648;28;20461;-59
2021/01/24 00:48:51;;;;;;;275.88;144.20;;;17.00;50.60;;;;;;5096192;28;20024;-59
2021/01/24 00:51:17;;;;;;;272.33;143.63;;;17.00;50.70;;;;;;5096167;28;20092;-59
2021/01/24 00:53:42;;;;;;;273.98;142.43;;;17.00;50.90;;;;;;5096302;28;20020;-59
2021/01/24 00:56:08;;;;;;;249.65;134.43;;;16.90;50.90;;;;;;5096336;28;20024;-59
2021/01/24 00:58:34;;;;;;;249.43;134.13;;;16.90;50.90;;;;;;5096432;28;20515;-59
2021/01/24 01:00:59;;;;;;;257.58;134.05;;;16.90;51.00;;;;;;5096076;28;20054;-58
2021/01/24 01:03:25;;;;;;;244.63;131.60;;;16.90;51.10;;;;;;5096056;28;20032;-58
2021/01/24 01:05:51;;;;;;;245.30;126.43;;;16.90;51.20;;;;;;5095756;28;20028;-59
2021/01/24 01:08:16;;;;;;;241.30;126.60;;;16.90;51.30;;;;;;5095943;28;20111;-59
2021/01/24 01:10:43;;;;;;;240.88;123.03;;;16.80;51.20;;;;;;5095612;28;20082;-59
2021/01/24 01:13:08;;;;;;;246.23;126.65;;;16.80;51.10;;;;;;5095853;28;20468;-58
2021/01/24 01:15:34;;;;;;;241.63;123.45;;;16.90;50.90;;;;;;5095805;28;20052;-58
2021/01/24 01:18:00;;;;;;;228.48;119.40;;;17.00;51.10;;;;;;5095744;28;20111;-58
2021/01/24 01:20:26;;;;;;;221.45;119.97;;;17.00;50.90;;;;;;5095627;28;20036;-59
2021/01/24 01:22:53;;;;;;;213.57;114.88;;;17.00;50.90;;;;;;5095508;28;20073;-59
2021/01/24 01:25:18;;;;;;;207.05;111.95;;;17.10;51.00;;;;;;5095673;28;20035;-58
2021/01/24 01:27:44;;;;;;;206.82;111.30;;;17.00;51.00;;;;;;5095637;28;20099;-58
2021/01/24 01:30:10;;;;;;;211.13;110.82;;;17.00;51.00;;;;;;5095506;28;20057;-58
2021/01/24 01:32:36;;;;;;;211.45;111.93;;;16.90;51.10;;;;;;5095518;28;20028;-58
2021/01/24 01:35:03;;;;;;;206.98;110.03;;;16.90;51.10;;;;;;5095342;28;20051;-58
2021/01/24 01:37:29;;;;;;;206.05;106.40;;;16.80;51.30;;;;;;5095132;28;20074;-58
2021/01/24 01:39:54;;;;;;;193.82;106.50;;;16.80;51.60;;;;;;5095639;28;20055;-59
2021/01/24 01:42:20;;;;;;;209.18;111.32;;;16.80;51.70;;;;;;5095260;28;20547;-58
2021/01/24 01:44:46;;;;;;;194.35;102.55;;;16.70;51.80;;;;;;5095111;28;20045;-58
2021/01/24 01:47:16;;;;;;;195.82;104.53;;;16.70;51.90;;;;;;5095310;28;20111;-58
2021/01/24 01:49:41;;;;;;;192.20;102.03;;;16.70;52.00;;;;;;5095044;28;20396;-59
2021/01/24 01:52:07;;;;;;;185.95;99.90;;;16.70;52.00;;;;;;5095324;28;20032;-59
2021/01/24 01:54:32;;;;;;;184.70;98.47;;;16.70;51.90;;;;;;5094992;28;20031;-59
2021/01/24 01:56:58;;;;;;;185.80;97.55;;;16.70;51.80;;;;;;5095292;28;20028;-58
2021/01/24 01:59:24;;;;;;;188.50;96.32;;;16.70;51.80;;;;;;5095107;28;20484;-58
2021/01/24 02:02:08;;;;;;;182.45;94.75;;;16.80;51.70;;;;;;5094825;28;20032;-58
2021/01/24 02:04:36;;;;;;;179.38;93.13;;;16.90;51.50;;;;;;5094870;28;20024;-59
2021/01/24 02:07:11;;;;;;;170.07;91.20;;;17.10;51.30;;;;;;5094511;28;20027;-58
2021/01/24 02:10:15;;;;;;;166.32;87.72;;;17.20;51.00;;;;;;5094744;28;20135;-58
2021/01/24 02:12:56;;;;;;;164.00;87.53;;;17.30;50.80;;;;;;5094808;28;20396;-58
2021/01/24 02:15:25;;;;;;;164.43;86.72;;;17.40;50.40;;;;;;5095022;28;20078;-58
2021/01/24 02:17:59;;;;;;;155.60;83.80;;;17.50;50.50;;;;;;5094429;28;20111;-58
2021/01/24 02:21:00;;;;;;;156.95;81.30;;;17.60;50.00;;;;;;5094641;28;20043;-58
2021/01/24 02:23:26;;;;;;;147.13;78.82;;;17.80;49.60;;;;;;5093786;28;20115;-58
2021/01/24 02:26:01;;;;;;;148.73;81.25;;;17.90;49.40;;;;;;5094427;28;20428;-59
2021/01/24 02:28:39;;;;;;;153.73;80.78;;;17.90;49.40;;;;;;5094635;28;20054;-59
2021/01/24 02:31:05;;;;;;;149.45;81.70;;;17.90;49.70;;;;;;5093949;28;20032;-59
2021/01/24 02:33:33;;;;;;;139.77;78.65;;;17.80;50.00;;;;;;5094596;28;20077;-59
2021/01/24 02:36:01;;;;;;;137.23;78.38;;;17.70;50.10;;;;;;5094382;28;20125;-59
2021/01/24 02:38:28;;;;;;;138.73;74.45;;;17.60;50.10;;;;;;5094110;28;20345;-58
2021/01/24 02:40:55;;;;;;;141.43;74.68;;;17.60;50.20;;;;;;5093643;28;20039;-58
2021/01/24 02:43:22;;;;;;;134.50;73.43;;;17.60;50.30;;;;;;5094190;28;20040;-58
2021/01/24 02:45:50;;;;;;;134.77;72.95;;;17.60;50.40;;;;;;5094123;28;20027;-59
2021/01/24 02:48:17;;;;;;;136.85;73.32;;;17.50;50.50;;;;;;5094533;28;20028;-58
2021/01/24 02:50:45;;;;;;;131.45;72.22;;;17.50;51.20;;;;;;5094206;28;20068;-59
2021/01/24 02:53:12;;;;;;;127.47;71.85;;;17.50;50.70;;;;;;5094153;28;20032;-59
2021/01/24 02:55:38;;;;;;;130.65;73.60;;;17.50;50.70;;;;;;5093974;28;20039;-58
2021/01/24 02:58:04;;;;;;;131.70;71.03;;;17.40;50.70;;;;;;5093988;28;20024;-59
2021/01/24 03:00:30;;;;;;;123.20;67.10;;;17.40;50.80;;;;;;5093769;28;20032;-58
2021/01/24 03:02:56;;;;;;;110.53;64.25;;;17.40;50.80;;;;;;5093963;28;20034;-58
2021/01/24 03:05:25;;;;;;;121.25;65.28;;;17.40;50.90;;;;;;5093848;28;20024;-58
2021/01/24 03:07:52;;;;;;;115.65;63.10;;;17.30;50.90;;;;;;5093707;28;20051;-58
2021/01/24 03:10:19;;;;;;;121.05;63.88;;;17.30;51.00;;;;;;5093371;28;20048;-58
2021/01/24 03:12:54;;;;;;;115.13;61.08;;;17.30;51.10;;;;;;5093716;28;20093;-58
2021/01/24 03:15:21;;;;;;;119.00;63.20;;;17.20;51.10;;;;;;5094069;28;20032;-58
2021/01/24 03:17:49;;;;;;;110.20;60.45;;;17.20;51.20;;;;;;5093864;28;20031;-58
2021/01/24 03:20:16;;;;;;;111.32;59.42;;;17.20;51.30;;;;;;5093728;28;20113;-58
2021/01/24 03:22:44;;;;;;;110.53;58.83;;;17.20;51.40;;;;;;5093710;28;20487;-58
2021/01/24 03:25:11;;;;;;;103.43;56.78;;;17.30;51.20;;;;;;5093723;28;20133;-58
2021/01/24 03:27:36;;;;;;;107.32;58.38;;;17.30;51.20;;;;;;5093756;28;20024;-58
2021/01/24 03:30:04;;;;;;;100.53;57.22;;;17.30;51.20;;;;;;5093559;28;20055;-58
2021/01/24 03:32:29;;;;;;;104.68;55.88;;;17.30;51.20;;;;;;5093598;28;20024;-58
2021/01/24 03:34:55;;;;;;;106.10;54.55;;;17.40;51.30;;;;;;5093903;28;20028;-58
2021/01/24 03:37:21;;;;;;;108.53;58.42;;;17.30;51.20;;;;;;5093689;28;20521;-58
2021/01/24 03:39:46;;;;;;;105.45;57.58;;;17.30;51.20;;;;;;5093502;28;20032;-59
2021/01/24 03:42:12;;;;;;;108.30;56.15;;;17.30;51.20;;;;;;5093565;28;20062;-58
2021/01/24 03:44:38;;;;;;;100.72;55.45;;;17.20;51.30;;;;;;5093316;28;20030;-58
2021/01/24 03:47:03;;;;;;;99.72;53.92;;;17.20;51.40;;;;;;5093672;28;20054;-58
2021/01/24 03:49:29;;;;;;;100.00;52.38;;;17.20;51.40;;;;;;5093414;28;20483;-58
2021/01/24 03:51:54;;;;;;;98.03;52.63;;;17.10;51.50;;;;;;5094201;28;20020;-59
2021/01/24 03:54:20;;;;;;;96.95;50.60;;;17.10;51.60;;;;;;5097381;28;20419;-58
2021/01/24 03:56:46;;;;;;;90.95;50.45;;;17.10;51.70;;;;;;5097165;28;20020;-58
2021/01/24 03:59:11;;;;;;;95.07;51.13;;;17.00;51.70;;;;;;5097322;28;20024;-58
2021/01/24 04:01:37;;;;;;;94.38;52.22;;;17.00;51.80;;;;;;5097284;28;20341;-58
2021/01/24 04:04:03;;;;;;;91.50;49.80;;;17.00;51.80;;;;;;5097158;28;20020;-58
2021/01/24 04:06:28;;;;;;;91.10;48.00;;;17.00;51.80;;;;;;5097375;28;20396;-58
2021/01/24 04:08:54;;;;;;;91.50;48.00;;;17.00;52.00;;;;;;5096847;28;20046;-59
2021/01/24 04:11:20;;;;;;;89.28;47.03;;;17.00;52.10;;;;;;5097247;28;20039;-58
2021/01/24 04:13:46;;;;;;;83.53;46.67;;;16.90;52.10;;;;;;5097573;28;20028;-58
2021/01/24 04:16:12;;;;;;;82.03;45.35;;;16.90;52.00;;;;;;5096734;28;20529;-58
2021/01/24 04:18:38;;;;;;;81.40;44.78;;;16.90;52.10;;;;;;5096920;28;20027;-58
2021/01/24 04:21:04;;;;;;;88.30;45.45;;;16.90;52.30;;;;;;5096863;28;20111;-58
2021/01/24 04:23:30;;;;;;;81.35;45.42;;;16.80;52.30;;;;;;5096836;28;20129;-59
2021/01/24 04:25:56;;;;;;;84.32;45.78;;;16.80;52.90;;;;;;5096923;28;20488;-58
2021/01/24 04:28:22;;;;;;;72.82;42.33;;;16.80;52.40;;;;;;5096897;28;20072;-58
2021/01/24 04:30:47;;;;;;;75.80;41.90;;;16.90;52.30;;;;;;5096866;28;20067;-58
2021/01/24 04:33:13;;;;;;;74.50;42.78;;;17.00;52.10;;;;;;5096655;28;20031;-58
2021/01/24 04:35:39;;;;;;;73.70;40.75;;;17.20;51.80;;;;;;5096562;28;20032;-58
2021/01/24 04:38:04;;;;;;;70.53;40.22;;;17.40;51.20;;;;;;5096528;28;20027;-58
2021/01/24 04:40:30;;;;;;;76.10;40.88;;;17.60;50.70;;;;;;5096177;28;20028;-58
2021/01/24 04:42:56;;;;;;;78.05;42.20;;;17.60;50.80;;;;;;5097184;28;20024;-58
2021/01/24 04:45:22;;;;;;;74.75;40.15;;;17.60;50.80;;;;;;5096631;28;20124;-58
2021/01/24 04:47:48;;;;;;;72.22;39.78;;;17.60;50.60;;;;;;5096402;28;20039;-58
2021/01/24 04:50:14;;;;;;;72.78;39.78;;;17.70;50.40;;;;;;5096216;28;20388;-58
2021/01/24 04:52:41;;;;;;;73.93;39.40;;;17.80;50.40;;;;;;5096018;28;20024;-58
2021/01/24 04:55:09;;;;;;;72.13;38.75;;;17.80;50.30;;;;;;5096190;28;20116;-58
2021/01/24 04:57:36;;;;;;;65.35;36.10;;;17.80;50.30;;;;;;5096519;28;20043;-58
2021/01/24 05:00:03;;;;;;;66.13;36.75;;;17.80;50.40;;;;;;5095851;28;20122;-58
2021/01/24 05:02:29;;;;;;;61.60;36.33;;;17.80;50.40;;;;;;5095660;28;20031;-58
2021/01/24 05:04:55;;;;;;;64.65;36.25;;;17.80;50.40;;;;;;5095913;28;20024;-58
2021/01/24 05:07:20;;;;;;;68.82;35.88;;;17.80;50.40;;;;;;5096330;28;20035;-58
2021/01/24 05:09:47;;;;;;;64.00;35.70;;;17.90;50.30;;;;;;5096274;28;20071;-58
2021/01/24 05:12:13;;;;;;;63.42;34.10;;;17.90;50.20;;;;;;5095891;28;20031;-58
2021/01/24 05:14:40;;;;;;;64.18;34.63;;;18.00;50.10;;;;;;5096079;28;20028;-58
2021/01/24 05:17:06;;;;;;;63.95;33.58;;;18.00;50.00;;;;;;5095782;28;20032;-58
2021/01/24 05:19:35;;;;;;;64.53;32.95;;;18.10;49.80;;;;;;5096065;28;20032;-59
2021/01/24 05:22:05;;;;;;;56.03;32.05;;;18.10;49.70;;;;;;5096164;28;20054;-58
2021/01/24 05:24:31;;;;;;;54.72;30.70;;;18.20;49.60;;;;;;5095820;28;20464;-58
2021/01/24 05:27:06;;;;;;;60.30;33.58;;;18.30;49.30;;;;;;5095667;28;20496;-58
2021/01/24 05:29:35;;;;;;;54.20;32.53;;;18.40;49.20;;;;;;5095287;28;20032;-58
2021/01/24 05:32:01;;;;;;;55.83;30.08;;;18.40;49.00;;;;;;5095461;28;20032;-58
2021/01/24 05:34:28;;;;;;;50.63;29.27;;;18.40;49.10;;;;;;5095954;28;20111;-58
2021/01/24 05:36:55;;;;;;;52.60;29.58;;;18.40;49.40;;;;;;5095811;28;20440;-58
2021/01/24 05:39:21;;;;;;;54.03;29.23;;;18.50;49.30;;;;;;5095214;28;20035;-58
2021/01/24 05:41:49;;;;;;;57.47;31.48;;;18.50;49.20;;;;;;5095043;28;20472;-58
2021/01/24 05:44:16;;;;;;;50.53;29.48;;;18.60;49.30;;;;;;5095292;28;20392;-58
2021/01/24 05:46:42;;;;;;;57.72;30.90;;;18.70;49.00;;;;;;5094968;28;20056;-59
2021/01/24 05:49:10;;;;;;;46.40;28.30;;;18.70;48.90;;;;;;5094907;28;20472;-58
2021/01/24 05:51:35;;;;;;;50.83;28.10;;;18.80;48.70;;;;;;5095401;28;20040;-58
2021/01/24 05:54:02;;;;;;;45.38;26.77;;;19.00;48.40;;;;;;5094963;28;20033;-58
2021/01/24 05:56:29;;;;;;;49.85;27.77;;;19.00;48.20;;;;;;5095341;28;20035;-58
2021/01/24 05:58:58;;;;;;;53.35;28.77;;;19.10;48.00;;;;;;5094800;28;20122;-58
2021/01/24 06:01:25;;;;;;;48.57;25.57;;;19.10;48.00;;;;;;5094972;28;20040;-58
2021/01/24 06:03:54;;;;;;;51.75;27.00;;;19.10;48.00;;;;;;5094846;28;20070;-59
2021/01/24 06:06:20;;;;;;;44.90;25.35;;;19.10;48.00;;;;;;5094861;28;20032;-58
2021/01/24 06:08:46;;;;;;;42.50;25.42;;;19.10;48.10;;;;;;5094804;28;20114;-58
2021/01/24 06:11:12;;;;;;;43.63;25.40;;;19.10;48.30;;;;;;5094627;28;20036;-58
2021/01/24 06:13:39;;;;;;;43.65;23.55;;;19.00;48.30;;;;;;5094737;28;20024;-58
2021/01/24 06:16:12;;;;;;;45.22;24.70;;;19.00;48.30;;;;;;5094086;28;20361;-59
2021/01/24 06:18:55;;;;;;;42.65;24.55;;;18.90;48.40;;;;;;5095006;28;20024;-58
2021/01/24 06:21:26;;;;;;;47.67;25.33;;;18.90;48.50;;;;;;5094870;28;20384;-58
2021/01/24 06:24:35;;;;;;;43.50;23.98;;;18.90;48.60;;;;;;5094907;28;20486;-59
2021/01/24 06:27:02;;;;;;;47.65;24.48;;;18.80;48.70;;;;;;5092019;28;20534;-58
2021/01/24 06:29:30;;;;;;;40.88;21.50;;;18.70;48.80;;;;;;5093745;28;20032;-58
2021/01/24 06:31:56;;;;;;;39.90;22.60;;;18.70;48.90;;;;;;5094370;28;20111;-58
2021/01/24 06:34:33;;;;;;;38.42;21.85;;;18.70;49.00;;;;;;5094348;28;20061;-59
2021/01/24 06:37:08;;;;;;;38.08;22.40;;;18.70;49.70;;;;;;5094395;28;20024;-58
2021/01/24 06:39:45;;;;;;;34.88;21.67;;;18.60;49.50;;;;;;5094588;28;20388;-58
2021/01/24 06:42:10;;;;;;;36.92;22.15;;;18.50;49.60;;;;;;5094205;28;20036;-58
2021/01/24 06:44:41;;;;;;;34.53;20.55;;;18.60;49.60;;;;;;5094013;28;20459;-58
2021/01/24 06:47:26;;;;;;;39.13;21.05;;;18.70;49.50;;;;;;5094239;28;20125;-58
2021/01/24 06:49:52;;;;;;;38.25;20.75;;;18.60;49.20;;;;;;5094422;28;20391;-58
2021/01/24 06:52:20;;;;;;;33.35;20.85;;;18.70;49.50;;;;;;5094004;28;20021;-58
2021/01/24 06:54:47;;;;;;;37.25;21.50;;;18.60;49.70;;;;;;5094135;28;20028;-58
2021/01/24 06:57:12;;;;;;;32.72;20.50;;;18.50;49.70;;;;;;5094035;28;20486;-59
2021/01/24 06:59:38;;;;;;;38.53;20.23;;;18.40;49.80;;;;;;5093809;28;20032;-58
2021/01/24 07:02:24;;;;;;;33.83;18.90;;;18.30;49.90;;;;;;5094234;28;20024;-58
2021/01/24 07:05:09;;;;;;;32.22;19.48;;;18.30;50.00;;;;;;5094019;28;20069;-58
2021/01/24 07:07:40;;;;;;;30.92;19.40;;;18.20;50.00;;;;;;5094002;28;20418;-58
2021/01/24 07:10:08;;;;;;;33.55;18.55;;;18.20;50.10;;;;;;5093733;28;20400;-58
2021/01/24 07:12:40;;;;;;;29.85;17.75;;;18.20;50.20;;;;;;5093771;28;20070;-58
2021/01/24 07:15:11;;;;;;;33.88;18.27;;;18.10;50.30;;;;;;5093791;28;20111;-58
2021/01/24 07:17:37;;;;;;;;;;;18.10;50.40;;;;;;5094384;28;20028;-58
2021/01/24 07:20:05;;;;;;;30.30;15.90;;;18.10;50.40;;;;;;5093835;28;19910;-58
2021/01/24 07:22:31;;;;;;;32.20;17.67;;;18.00;50.40;;;;;;5093756;28;20098;-58
2021/01/24 07:24:57;;;;;;;31.90;17.15;;;18.00;50.50;;;;;;5093516;28;20033;-58
2021/01/24 07:27:28;;;;;;;29.50;17.00;;;18.00;50.60;;;;;;5097248;28;20024;-58
2021/01/24 07:29:55;;;;;;;31.23;17.20;;;18.00;50.60;;;;;;5097824;28;20119;-58
2021/01/24 07:32:23;;;;;;;32.97;16.35;;;18.00;50.80;;;;;;5097967;28;20020;-58
2021/01/24 07:34:51;;;;;;;27.70;16.10;;;18.00;50.70;;;;;;5097772;28;20422;-58
2021/01/24 07:37:17;;;;;;;26.08;15.30;;;18.00;50.70;;;;;;5097771;28;20032;-58
2021/01/24 07:39:48;;;;;;;27.92;16.17;;;18.10;50.50;;;;;;5097736;28;20020;-58
2021/01/24 07:42:15;;;;;;;29.58;15.95;;;18.20;50.40;;;;;;5097967;28;20432;-58
2021/01/24 07:44:42;;;;;;;28.17;15.57;;;18.20;50.30;;;;;;5097606;28;20063;-58
2021/01/24 07:47:09;;;;;;;27.13;15.73;;;18.30;50.30;;;;;;5097530;28;20090;-59
2021/01/24 07:49:35;;;;;;;29.75;16.35;;;18.40;50.10;;;;;;5097151;28;20452;-58
2021/01/24 07:52:03;;;;;;;28.48;15.45;;;18.50;49.90;;;;;;5097774;28;20047;-59
2021/01/24 07:54:29;;;;;;;26.40;15.40;;;18.60;49.60;;;;;;5097456;28;20028;-58
2021/01/24 07:56:55;;;;;;;25.20;14.32;;;18.70;49.50;;;;;;5097712;28;20456;-58
2021/01/24 07:59:21;;;;;;;25.63;14.60;;;18.70;49.40;;;;;;5097531;28;20111;-58
2021/01/24 08:01:47;;;;;;;24.95;14.90;;;18.80;49.20;;;;;;5097304;28;20032;-58
2021/01/24 08:04:12;;;;;;;22.27;13.52;;;18.90;49.10;;;;;;5097558;28;20467;-58
2021/01/24 08:06:39;;;;;;;25.63;14.98;;;18.90;49.10;;;;;;5097433;28;20024;-59
2021/01/24 08:09:06;;;;;;;26.17;13.93;;;18.90;49.10;;;;;;5096965;28;20452;-58
2021/01/24 08:11:32;;;;;;;23.73;14.02;;;18.80;49.10;;;;;;5097108;28;20062;-58
2021/01/24 08:13:58;;;;;;;21.45;12.82;;;18.80;49.10;;;;;;5096996;28;20031;-58
2021/01/24 08:16:33;;;;;;;22.85;13.73;;;18.80;49.20;;;;;;5096900;28;20035;-59
2021/01/24 08:19:01;;;;;;;24.33;14.13;;;18.80;49.30;;;;;;5097402;28;20032;-58
2021/01/24 08:21:27;;;;;;;21.27;13.73;;;18.80;49.30;;;;;;5096938;28;20058;-59
2021/01/24 08:23:54;;;;;;;25.85;13.70;;;18.70;49.40;;;;;;5096896;28;20020;-58
2021/01/24 08:26:21;;;;;;;27.10;13.90;;;18.70;49.40;;;;;;5096590;28;20463;-58
2021/01/24 08:28:47;;;;;;;20.55;12.88;;;18.70;49.50;;;;;;5096640;28;20020;-59
2021/01/24 08:31:21;;;;;;;20.92;12.45;;;18.70;49.60;;;;;;5097292;28;20035;-58
2021/01/24 08:33:54;;;;;;;22.30;12.63;;;18.70;49.70;;;;;;5096980;28;20024;-58
2021/01/24 08:36:26;;;;;;;19.83;12.18;;;18.60;49.80;;;;;;5096573;28;20361;-58
2021/01/24 08:38:56;;;;;;;21.95;12.02;;;18.60;49.90;;;;;;5095884;28;20035;-58
2021/01/24 08:41:29;;;;;;;21.58;12.18;;;18.50;50.00;;;;;;5096373;28;20104;-59
2021/01/24 08:44:05;;;;;;;21.05;12.07;;;18.50;50.10;;;;;;5096503;28;20029;-58
2021/01/24 08:46:39;;;;;;;22.33;12.40;;;18.40;50.20;;;;;;5096563;28;20032;-58
2021/01/24 08:49:10;;;;;;;17.45;10.93;;;18.40;50.30;;;;;;5096703;28;20514;-58
2021/01/24 08:51:40;;;;;;;21.55;12.38;;;18.40;50.60;;;;;;5096158;28;20073;-59
2021/01/24 08:54:20;;;;;;;20.08;11.52;;;18.50;50.40;;;;;;5096294;28;20107;-58
2021/01/24 08:56:46;;;;;;;22.70;11.68;;;18.60;50.10;;;;;;5096809;28;20035;-58
2021/01/24 08:59:17;;;;;;;17.88;11.02;;;18.70;50.00;;;;;;5096215;28;20024;-58
2021/01/24 09:01:45;;;;;;;21.17;12.27;;;18.70;50.00;;;;;;5096031;28;20024;-58
2021/01/24 09:04:47;;;;;;;18.63;10.05;;;18.60;50.20;;;;;;5095738;28;20064;-59
2021/01/24 09:07:15;;;;;;;18.17;10.98;;;18.50;50.20;;;;;;5095400;28;20044;-59
2021/01/24 09:09:43;;;;;;;17.98;10.90;;;18.40;50.40;;;;;;5095772;28;20432;-58
2021/01/24 09:12:11;;;;;;;15.35;10.45;;;18.40;50.40;;;;;;5096019;28;20119;-58
2021/01/24 09:14:37;;;;;;;21.20;11.35;;;18.40;50.50;;;;;;5095856;28;20418;-59
2021/01/24 09:17:10;;;;;;;22.15;11.48;;;18.30;50.60;;;;;;5096115;28;20028;-59
2021/01/24 09:19:38;;;;;;;19.95;10.95;;;18.30;50.80;;;;;;5095923;28;20035;-58
2021/01/24 09:22:07;;;;;;;22.38;11.13;;;18.20;50.70;;;;;;5096112;28;20050;-59
2021/01/24 09:24:34;;;;;;;21.52;11.18;;;18.20;50.70;;;;;;5095465;28;20035;-58
2021/01/24 09:27:00;;;;;;;23.63;12.40;;;18.30;50.60;;;;;;5094338;28;20365;-60
2021/01/24 09:29:26;;;;;;;20.75;11.25;;;18.30;50.60;;;;;;5095561;28;20090;-59
2021/01/24 09:31:51;;;;;;;20.75;11.32;;;18.30;50.60;;;;;;5095345;28;20024;-58
2021/01/24 09:34:17;;;;;;;23.17;11.07;;;18.40;51.10;;;;;;5095296;28;20028;-58
2021/01/24 09:36:43;;;;;;;27.65;12.73;;;18.40;51.00;;;;;;5095588;28;20476;-59
2021/01/24 09:39:08;;;;;;;22.08;12.73;;;18.20;50.00;;;;;;5095448;28;20051;-56
2021/01/24 09:41:35;;;;;;;17.45;10.98;;;18.10;48.50;;;;;;5095270;28;20024;-60
2021/01/24 09:44:02;;;;;;;20.20;11.57;;;18.10;47.50;;;;;;5095112;28;20601;-60
2021/01/24 09:46:28;;;;;;;20.70;10.50;;;18.10;46.70;;;;;;5095247;28;20053;-60
2021/01/24 09:48:54;;;;;;;23.20;10.27;;;18.20;47.10;;;;;;5095128;28;20066;-60
2021/01/24 09:51:20;;;;;;;25.83;11.32;;;18.20;47.50;;;;;;5094301;28;20498;-63
2021/01/24 09:53:53;;;;;;;23.77;10.95;;;18.30;48.00;;;;;;5094965;28;20031;-60
2021/01/24 09:56:20;;;;;;;24.83;10.30;;;18.30;48.40;;;;;;5095002;28;20031;-59
2021/01/24 09:58:45;;;;;;;19.40;9.63;;;18.50;48.60;;;;;;5095229;28;20115;-59
2021/01/24 10:01:12;;;;;;;26.98;10.70;;;18.70;48.40;;;;;;5094602;28;20139;-60
2021/01/24 10:03:38;;;;;;;17.67;10.32;;;18.80;48.40;;;;;;5094875;28;20031;-60
2021/01/24 10:06:04;;;;;;;14.63;9.65;;;18.90;48.30;;;;;;5094172;28;20020;-58
2021/01/24 10:08:30;;;;;;;41.92;23.88;;;19.10;47.40;;;;;;5089080;28;20051;-56
2021/01/24 10:10:56;;;;;;;125.47;54.30;;;19.10;46.90;;;;;;5076821;28;20129;-59
2021/01/24 10:13:21;;;;;;;77.50;40.50;;;19.00;45.40;;;;;;5074378;28;20028;-60
2021/01/24 10:15:52;;;;;;;106.82;56.45;;;18.90;44.80;;;;;;5074264;28;20040;-60
2021/01/24 10:18:19;;;;;;;113.75;58.90;;;18.90;44.30;;;;;;5074357;28;20021;-60
2021/01/24 10:20:45;;;;;;;95.43;58.05;;;18.90;44.00;;;;;;5074104;28;20040;-59
2021/01/24 10:23:12;;;;;;;97.10;52.97;;;18.70;43.20;;;;;;5075132;28;20155;-60
2021/01/24 10:25:37;;;;;;;74.57;44.28;;;18.70;42.80;;;;;;5074230;28;20032;-59
2021/01/24 10:28:04;;;;;;;63.38;36.10;;;18.60;42.30;;;;;;5074057;28;20028;-61
2021/01/24 10:30:29;;;;;;;49.70;27.35;;;18.50;42.40;;;;;;5073903;28;20472;-60
2021/01/24 10:32:55;;;;;;;34.28;21.63;;;18.40;41.70;;;;;;5074307;28;20033;-60
2021/01/24 10:35:21;;;;;;;25.02;16.30;;;18.30;41.30;;;;;;5074277;28;20032;-60
2021/01/24 10:37:47;;;;;;;26.13;16.42;;;18.30;41.00;;;;;;5074059;28;20028;-59
2021/01/24 10:40:13;;;;;;;29.77;15.10;;;18.10;41.30;;;;;;5074035;28;20028;-58
2021/01/24 10:42:39;;;;;;;25.00;14.95;;;18.20;42.00;;;;;;5074278;28;20150;-60
2021/01/24 10:45:07;;;;;;;23.48;15.05;;;18.40;42.30;;;;;;5074166;28;20024;-60
2021/01/24 10:47:32;;;;;;;30.17;16.08;;;18.50;43.00;;;;;;5074011;28;20461;-60
2021/01/24 10:49:58;;;;;;;37.35;15.90;;;18.60;43.30;;;;;;5073805;28;20040;-60
2021/01/24 10:52:24;;;;;;;30.52;16.33;;;18.70;43.30;;;;;;5073677;28;20025;-60
2021/01/24 10:54:49;;;;;;;27.58;15.77;;;18.80;43.50;;;;;;5073884;28;20020;-60
2021/01/24 10:57:15;;;;;;;31.20;16.73;;;18.90;43.60;;;;;;5074006;28;20039;-60
2021/01/24 10:59:40;;;;;;;30.60;17.00;;;18.80;44.00;;;;;;5072897;28;20111;-59
2021/01/24 11:02:06;;;;;;;28.88;14.65;;;19.00;44.30;;;;;;5073328;28;20098;-59
2021/01/24 11:04:32;;;;;;;26.73;13.82;;;19.10;44.30;;;;;;5073632;28;20035;-60
2021/01/24 11:07:00;;;;;;;27.50;14.80;;;19.20;44.00;;;;;;5073628;28;20021;-60
2021/01/24 11:09:26;;;;;;;33.35;14.43;;;19.20;43.90;;;;;;5073061;28;20054;-60
2021/01/24 11:11:52;;;;;;;31.08;15.18;;;19.20;44.10;;;;;;5073504;28;20048;-60
2021/01/24 11:14:18;;;;;;;25.15;13.68;;;19.20;44.50;;;;;;5073586;28;20090;-59
2021/01/24 11:16:44;;;;;;;26.20;13.40;;;19.10;44.60;;;;;;5073576;28;20524;-60
2021/01/24 11:19:09;;;;;;;25.35;12.98;;;19.00;45.30;;;;;;5073538;28;20028;-59
2021/01/24 11:21:35;;;;;;;21.65;12.45;;;19.10;44.90;;;;;;5073745;28;20032;-59
2021/01/24 11:24:00;;;;;;;27.17;13.48;;;19.10;44.90;;;;;;5073526;28;20033;-60
2021/01/24 11:26:26;;;;;;;21.38;12.88;;;19.00;45.00;;;;;;5073385;28;20120;-59
2021/01/24 11:28:52;;;;;;;22.92;12.63;;;19.00;45.30;;;;;;5073247;28;20495;-60
2021/01/24 11:31:17;;;;;;;23.95;12.40;;;19.00;45.30;;;;;;5073338;28;20373;-59
2021/01/24 11:33:45;;;;;;;21.67;12.35;;;18.90;45.50;;;;;;5073465;28;20111;-59
2021/01/24 11:36:11;;;;;;;23.58;12.77;;;18.90;45.60;;;;;;5073377;28;20037;-59
2021/01/24 11:38:37;;;;;;;26.33;11.57;;;18.90;45.90;;;;;;5073675;28;20031;-59
2021/01/24 11:41:04;;;;;;;20.83;11.25;;;18.80;46.20;;;;;;5073494;28;20036;-61
2021/01/24 11:43:29;;;;;;;16.85;9.60;;;18.90;45.60;;;;;;5073329;28;20362;-61
2021/01/24 11:45:56;;;;;;;17.80;7.85;;;18.70;43.20;;;;;;5073380;28;20108;-61
2021/01/24 11:48:22;;;;;;;10.68;6.70;;;18.50;42.30;;;;;;5073345;28;20056;-61
2021/01/24 11:50:47;;;;;;;9.63;6.35;;;18.40;43.90;;;;;;5072984;28;20162;-60
2021/01/24 11:53:13;;;;;;;13.65;5.50;;;18.30;43.60;;;;;;5073700;28;20487;-60
2021/01/24 11:55:39;;;;;;;14.10;6.47;;;18.20;41.50;;;;;;5073203;28;20029;-60
2021/01/24 11:58:04;;;;;;;11.52;6.25;;;18.20;40.90;;;;;;5072906;28;20576;-61
2021/01/24 12:00:30;;;;;;;12.10;5.85;;;18.20;39.60;;;;;;5072720;28;20029;-67
2021/01/24 12:02:55;;;;;;;8.75;5.60;;;18.30;40.80;;;;;;5073023;28;20025;-63
2021/01/24 12:05:21;;;;;;;8.38;5.63;;;18.50;41.20;;;;;;5072833;28;20040;-59
2021/01/24 12:07:46;;;;;;;11.60;6.15;;;18.70;39.70;;;;;;5072876;28;20028;-60
2021/01/24 12:10:12;;;;;;;8.95;5.07;;;18.80;40.50;;;;;;5072796;28;20101;-59
2021/01/24 12:12:38;;;;;;;7.63;5.88;;;18.70;39.50;;;;;;5073805;28;20028;-59
2021/01/24 12:15:04;;;;;;;27.65;15.18;;;18.70;40.30;;;;;;5096877;28;20032;-57
2021/01/24 12:17:30;;;;;;;131.50;50.53;;;18.60;40.80;;;;;;5090067;28;20426;-58
2021/01/24 12:19:55;;;;;;;48.25;29.10;;;18.50;41.00;;;;;;5080930;28;20439;-59
2021/01/24 12:22:21;;;;;;;30.55;17.58;;;18.50;46.40;;;;;;5076552;28;20024;-58
2021/01/24 12:24:47;;;;;;;26.50;15.05;;;18.50;44.50;;;;;;5076581;28;20475;-57